createdAt,value
2017-07-27T00:00:49.637Z,1001.4
2017-07-27T00:02:01.863Z,1001.42
2017-07-27T00:03:14.477Z,1001.41
2017-07-27T00:04:27.049Z,1001.42
2017-07-27T00:05:39.613Z,1001.46
2017-07-27T00:06:52.202Z,1001.4
2017-07-27T00:08:04.799Z,1001.42
2017-07-27T00:09:17.386Z,1001.38
2017-07-27T00:10:29.340Z,1001.4
2017-07-27T00:11:41.310Z,1001.38
2017-07-27T00:12:53.849Z,1001.41
2017-07-27T00:14:06.420Z,1001.39
2017-07-27T00:15:18.727Z,1001.37
2017-07-27T00:16:31.311Z,1001.33
2017-07-27T00:17:43.854Z,1001.34
2017-07-27T00:18:56.457Z,1001.31
2017-07-27T00:20:09.038Z,1001.37
2017-07-27T00:21:21.344Z,1001.32
2017-07-27T00:22:33.616Z,1001.36
2017-07-27T00:23:46.209Z,1001.32
2017-07-27T00:24:58.455Z,1001.36
2017-07-27T00:26:11.031Z,1001.34
2017-07-27T00:27:23.596Z,1001.38
2017-07-27T00:28:35.841Z,1001.36
2017-07-27T00:29:47.825Z,1001.36
2017-07-27T00:31:00.067Z,1001.37
2017-07-27T00:32:12.654Z,1001.35
2017-07-27T00:33:24.926Z,1001.36
2017-07-27T00:34:37.545Z,1001.31
2017-07-27T00:35:50.129Z,1001.33
2017-07-27T00:37:02.456Z,1001.31
2017-07-27T00:38:14.696Z,1001.31
2017-07-27T00:39:26.938Z,1001.37
2017-07-27T00:40:39.552Z,1001.36
2017-07-27T00:41:52.098Z,1001.34
2017-07-27T00:43:03.761Z,1001.36
2017-07-27T00:44:16.339Z,1001.31
2017-07-27T00:45:28.933Z,1001.31
2017-07-27T00:46:41.561Z,1001.3
2017-07-27T00:47:53.837Z,1001.29
2017-07-27T00:49:06.105Z,1001.29
2017-07-27T00:50:18.722Z,1001.29
2017-07-27T00:51:31.054Z,1001.27
2017-07-27T00:52:43.671Z,1001.28
2017-07-27T00:53:55.985Z,1001.29
2017-07-27T00:55:08.283Z,1001.25
2017-07-27T00:56:21.098Z,1001.24
2017-07-27T00:57:33.045Z,1001.23
2017-07-27T00:58:45.367Z,1001.24
2017-07-27T00:59:57.308Z,1001.24
2017-07-27T01:01:09.590Z,1001.25
2017-07-27T01:02:22.195Z,1001.21
2017-07-27T01:03:34.480Z,1001.24
2017-07-27T01:04:47.048Z,1001.23
2017-07-27T01:05:59.388Z,1001.22
2017-07-27T01:07:11.662Z,1001.23
2017-07-27T01:08:24.256Z,1001.25
2017-07-27T01:09:36.579Z,1001.28
2017-07-27T01:10:49.126Z,1001.26
2017-07-27T01:12:01.726Z,1001.24
2017-07-27T01:13:13.692Z,1001.29
2017-07-27T01:14:26.279Z,1001.25
2017-07-27T01:15:38.641Z,1001.21
2017-07-27T01:16:51.254Z,1001.26
2017-07-27T01:18:03.541Z,1001.3
2017-07-27T01:19:16.164Z,1001.31
2017-07-27T01:20:28.756Z,1001.29
2017-07-27T01:21:41.029Z,1001.28
2017-07-27T01:22:53.318Z,1001.31
2017-07-27T01:24:05.622Z,1001.26
2017-07-27T01:25:17.949Z,1001.25
2017-07-27T01:26:30.207Z,1001.25
2017-07-27T01:27:42.494Z,1001.23
2017-07-27T01:28:55.114Z,1001.22
2017-07-27T01:30:07.437Z,1001.23
2017-07-27T01:31:19.741Z,1001.2
2017-07-27T01:32:32.353Z,1001.26
2017-07-27T01:33:44.597Z,1001.18
2017-07-27T01:34:57.193Z,1001.2
2017-07-27T01:36:09.445Z,1001.23
2017-07-27T01:37:21.790Z,1001.2
2017-07-27T01:38:33.466Z,1001.17
2017-07-27T01:39:45.437Z,1001.14
2017-07-27T01:40:57.760Z,1001.1
2017-07-27T01:42:10.079Z,1001.09
2017-07-27T01:43:22.363Z,1001.09
2017-07-27T01:44:34.910Z,1001.09
2017-07-27T01:45:47.413Z,1001.09
2017-07-27T01:47:00.052Z,1001.09
2017-07-27T01:48:12.340Z,1001.05
2017-07-27T01:49:24.942Z,1001.06
2017-07-27T01:50:37.506Z,1001.05
2017-07-27T01:51:49.834Z,1001.05
2017-07-27T01:53:02.416Z,1001.02
2017-07-27T01:54:14.784Z,1001.07
2017-07-27T01:55:27.113Z,1001.01
2017-07-27T01:56:39.718Z,1001
2017-07-27T01:57:52.330Z,1001.01
2017-07-27T01:59:04.612Z,1001
2017-07-27T02:00:17.185Z,1000.95
2017-07-27T02:01:29.678Z,1000.96
2017-07-27T02:02:42.276Z,1000.94
2017-07-27T02:03:54.893Z,1000.97
2017-07-27T02:05:07.471Z,1000.93
2017-07-27T02:06:19.767Z,1000.98
2017-07-27T02:07:32.410Z,1000.94
2017-07-27T02:08:45.005Z,1000.91
2017-07-27T02:09:57.341Z,1000.93
2017-07-27T02:11:09.585Z,1000.94
2017-07-27T02:12:21.814Z,1000.94
2017-07-27T02:13:34.423Z,1000.95
2017-07-27T02:14:47.094Z,1000.98
2017-07-27T02:15:59.728Z,1000.98
2017-07-27T02:17:11.982Z,1000.95
2017-07-27T02:18:23.994Z,1000.97
2017-07-27T02:19:36.242Z,1000.99
2017-07-27T02:20:48.787Z,1000.97
2017-07-27T02:22:01.051Z,1000.93
2017-07-27T02:23:13.296Z,1000.92
2017-07-27T02:24:25.904Z,1000.92
2017-07-27T02:25:37.822Z,1000.94
2017-07-27T02:26:49.804Z,1000.97
2017-07-27T02:28:02.365Z,1000.98
2017-07-27T02:29:14.984Z,1000.97
2017-07-27T02:30:27.585Z,1000.93
2017-07-27T02:31:40.202Z,1000.96
2017-07-27T02:32:52.747Z,1000.95
2017-07-27T02:34:04.753Z,1000.97
2017-07-27T02:35:17.338Z,1000.96
2017-07-27T02:36:29.920Z,1000.93
2017-07-27T02:37:42.505Z,1000.92
2017-07-27T02:38:54.844Z,1000.94
2017-07-27T02:40:07.081Z,1000.95
2017-07-27T02:41:19.374Z,1000.93
2017-07-27T02:42:31.968Z,1000.95
2017-07-27T02:43:44.233Z,1000.96
2017-07-27T02:44:56.480Z,1000.98
2017-07-27T02:46:09.069Z,1001.01
2017-07-27T02:47:21.654Z,1000.99
2017-07-27T02:48:34.209Z,1000.98
2017-07-27T02:49:45.545Z,1000.97
2017-07-27T02:50:58.177Z,1000.99
2017-07-27T02:52:10.807Z,1001.03
2017-07-27T02:53:23.401Z,1001.04
2017-07-27T02:54:35.685Z,1001.08
2017-07-27T02:55:48.275Z,1001.09
2017-07-27T02:57:00.877Z,1001.12
2017-07-27T02:58:13.470Z,1001.09
2017-07-27T02:59:25.999Z,1001.11
2017-07-27T03:00:38.262Z,1001.09
2017-07-27T03:01:50.604Z,1001.11
2017-07-27T03:03:02.897Z,1001.12
2017-07-27T03:04:15.170Z,1001.1
2017-07-27T03:05:27.735Z,1001.14
2017-07-27T03:06:40.019Z,1001.11
2017-07-27T03:07:52.337Z,1001.11
2017-07-27T03:09:04.923Z,1001.11
2017-07-27T03:10:16.581Z,1001.13
2017-07-27T03:11:28.923Z,1001.11
2017-07-27T03:12:41.547Z,1001.08
2017-07-27T03:13:53.838Z,1001.09
2017-07-27T03:15:06.090Z,1001.08
2017-07-27T03:16:18.685Z,1001.11
2017-07-27T03:17:31.245Z,1001.12
2017-07-27T03:18:43.190Z,1001.13
2017-07-27T03:19:55.486Z,1001.13
2017-07-27T03:21:07.738Z,1001.13
2017-07-27T03:22:20.072Z,1001.1
2017-07-27T03:23:32.357Z,1001.09
2017-07-27T03:24:44.710Z,1001.08
2017-07-27T03:25:57.266Z,1001.08
2017-07-27T03:27:09.264Z,1001.1
2017-07-27T03:28:21.508Z,1001.11
2017-07-27T03:29:33.471Z,1001.13
2017-07-27T03:30:46.027Z,1001.17
2017-07-27T03:31:58.304Z,1001.16
2017-07-27T03:33:10.603Z,1001.17
2017-07-27T03:34:22.891Z,1001.18
2017-07-27T03:35:35.165Z,1001.17
2017-07-27T03:36:47.728Z,1001.19
2017-07-27T03:38:00.019Z,1001.19
2017-07-27T03:39:12.534Z,1001.19
2017-07-27T03:40:24.824Z,1001.21
2017-07-27T03:41:37.365Z,1001.18
2017-07-27T03:42:49.915Z,1001.2
2017-07-27T03:44:02.544Z,1001.16
2017-07-27T03:45:14.826Z,1001.17
2017-07-27T03:46:27.473Z,1001.2
2017-07-27T03:47:40.068Z,1001.17
2017-07-27T03:48:52.614Z,1001.17
2017-07-27T03:50:05.251Z,1001.14
2017-07-27T03:51:17.505Z,1001.16
2017-07-27T03:52:29.750Z,1001.16
2017-07-27T03:53:42.326Z,1001.17
2017-07-27T03:54:54.893Z,1001.18
2017-07-27T03:56:07.464Z,1001.18
2017-07-27T03:57:19.691Z,1001.2
2017-07-27T03:58:32.248Z,1001.14
2017-07-27T03:59:44.516Z,1001.13
2017-07-27T04:00:57.123Z,1001.16
2017-07-27T04:02:09.767Z,1001.14
2017-07-27T04:03:21.389Z,1001.13
2017-07-27T04:04:33.654Z,1001.19
2017-07-27T04:05:45.585Z,1001.24
2017-07-27T04:06:58.134Z,1001.28
2017-07-27T04:08:10.727Z,1001.26
2017-07-27T04:09:23.351Z,1001.24
2017-07-27T04:10:35.616Z,1001.25
2017-07-27T04:11:48.189Z,1001.24
2017-07-27T04:13:00.788Z,1001.24
2017-07-27T04:14:13.328Z,1001.23
2017-07-27T04:15:25.556Z,1001.26
2017-07-27T04:16:38.156Z,1001.24
2017-07-27T04:17:50.417Z,1001.25
2017-07-27T04:19:02.689Z,1001.21
2017-07-27T04:20:14.713Z,1001.2
2017-07-27T04:21:27.321Z,1001.28
2017-07-27T04:22:39.602Z,1001.27
2017-07-27T04:23:51.887Z,1001.23
2017-07-27T04:25:03.921Z,1001.25
2017-07-27T04:26:16.488Z,1001.3
2017-07-27T04:27:28.464Z,1001.34
2017-07-27T04:28:41.004Z,1001.31
2017-07-27T04:29:53.293Z,1001.36
2017-07-27T04:31:05.232Z,1001.32
2017-07-27T04:32:17.242Z,1001.35
2017-07-27T04:33:29.887Z,1001.36
2017-07-27T04:34:42.466Z,1001.33
2017-07-27T04:35:54.463Z,1001.36
2017-07-27T04:37:07.103Z,1001.38
2017-07-27T04:38:19.322Z,1001.32
2017-07-27T04:39:31.252Z,1001.39
2017-07-27T04:40:43.588Z,1001.34
2017-07-27T04:41:55.559Z,1001.39
2017-07-27T04:43:08.254Z,1001.35
2017-07-27T04:44:20.202Z,1001.35
2017-07-27T04:45:32.523Z,1001.38
2017-07-27T04:46:45.094Z,1001.38
2017-07-27T04:47:57.690Z,1001.4
2017-07-27T04:49:10.240Z,1001.37
2017-07-27T04:50:22.838Z,1001.36
2017-07-27T04:51:35.444Z,1001.4
2017-07-27T04:52:48.034Z,1001.41
2017-07-27T04:54:00.707Z,1001.39
2017-07-27T04:55:13.002Z,1001.41
2017-07-27T04:56:25.309Z,1001.4
2017-07-27T04:57:37.593Z,1001.4
2017-07-27T04:58:50.208Z,1001.39
2017-07-27T05:00:02.809Z,1001.39
2017-07-27T05:01:14.125Z,1001.39
2017-07-27T05:02:26.071Z,1001.42
2017-07-27T05:03:38.029Z,1001.42
2017-07-27T05:04:50.543Z,1001.4
2017-07-27T05:06:03.161Z,1001.43
2017-07-27T05:07:15.460Z,1001.44
2017-07-27T05:08:27.794Z,1001.48
2017-07-27T05:09:40.340Z,1001.53
2017-07-27T05:10:52.895Z,1001.47
2017-07-27T05:12:05.206Z,1001.53
2017-07-27T05:13:17.171Z,1001.57
2017-07-27T05:14:29.792Z,1001.53
2017-07-27T05:15:42.396Z,1001.5
2017-07-27T05:16:54.991Z,1001.45
2017-07-27T05:18:07.274Z,1001.44
2017-07-27T05:19:19.532Z,1001.38
2017-07-27T05:20:32.205Z,1001.33
2017-07-27T05:21:44.761Z,1001.31
2017-07-27T05:22:57.631Z,1001.26
2017-07-27T05:24:10.219Z,1001.24
2017-07-27T05:25:22.845Z,1001.3
2017-07-27T05:26:35.136Z,1001.28
2017-07-27T05:27:47.130Z,1001.29
2017-07-27T05:28:59.462Z,1001.29
2017-07-27T05:30:11.708Z,1001.31
2017-07-27T05:31:24.379Z,1001.29
2017-07-27T05:32:36.680Z,1001.38
2017-07-27T05:33:48.920Z,1001.4
2017-07-27T05:35:01.214Z,1001.4
2017-07-27T05:36:13.750Z,1001.36
2017-07-27T05:37:26.309Z,1001.33
2017-07-27T05:38:38.918Z,1001.31
2017-07-27T05:39:51.488Z,1001.33
2017-07-27T05:41:03.791Z,1001.38
2017-07-27T05:42:16.379Z,1001.42
2017-07-27T05:43:28.719Z,1001.41
2017-07-27T05:44:41.250Z,1001.48
2017-07-27T05:45:53.543Z,1001.49
2017-07-27T05:47:05.525Z,1001.53
2017-07-27T05:48:18.138Z,1001.49
2017-07-27T05:49:30.132Z,1001.53
2017-07-27T05:50:42.113Z,1001.53
2017-07-27T05:51:54.490Z,1001.5
2017-07-27T05:53:06.423Z,1001.52
2017-07-27T05:54:19.057Z,1001.56
2017-07-27T05:55:31.403Z,1001.51
2017-07-27T05:56:43.685Z,1001.49
2017-07-27T05:57:56.258Z,1001.47
2017-07-27T05:59:08.512Z,1001.53
2017-07-27T06:00:21.057Z,1001.54
2017-07-27T06:01:33.365Z,1001.57
2017-07-27T06:02:45.936Z,1001.54
2017-07-27T06:03:58.285Z,1001.52
2017-07-27T06:05:10.852Z,1001.55
2017-07-27T06:06:23.075Z,1001.56
2017-07-27T06:07:35.347Z,1001.53
2017-07-27T06:08:47.966Z,1001.52
2017-07-27T06:10:00.493Z,1001.55
2017-07-27T06:11:13.107Z,1001.52
2017-07-27T06:12:25.679Z,1001.49
2017-07-27T06:13:38.175Z,1001.52
2017-07-27T06:14:50.750Z,1001.55
2017-07-27T06:16:02.716Z,1001.51
2017-07-27T06:17:14.985Z,1001.59
2017-07-27T06:18:27.302Z,1001.54
2017-07-27T06:19:39.533Z,1001.56
2017-07-27T06:20:52.157Z,1001.6
2017-07-27T06:22:04.945Z,1001.57
2017-07-27T06:23:16.934Z,1001.54
2017-07-27T06:24:29.494Z,1001.53
2017-07-27T06:25:41.794Z,1001.5
2017-07-27T06:26:54.430Z,1001.54
2017-07-27T06:28:06.686Z,1001.54
2017-07-27T06:29:19.246Z,1001.49
2017-07-27T06:30:31.266Z,1001.57
2017-07-27T06:31:43.489Z,1001.57
2017-07-27T06:32:56.067Z,1001.57
2017-07-27T06:34:08.711Z,1001.62
2017-07-27T06:35:20.677Z,1001.64
2017-07-27T06:36:32.896Z,1001.64
2017-07-27T06:37:45.445Z,1001.79
2017-07-27T06:38:58.015Z,1001.77
2017-07-27T06:40:10.570Z,1002.18
2017-07-27T06:41:23.110Z,1002.11
2017-07-27T06:42:35.102Z,1002
2017-07-27T06:43:47.359Z,1002.04
2017-07-27T06:44:59.974Z,1002.03
2017-07-27T06:46:12.206Z,1001.98
2017-07-27T06:47:24.839Z,1001.95
2017-07-27T06:48:37.118Z,1002
2017-07-27T06:49:49.813Z,1001.95
2017-07-27T06:51:01.772Z,1002.01
2017-07-27T06:52:14.345Z,1002.1
2017-07-27T06:53:26.600Z,1002.07
2017-07-27T06:54:38.585Z,1001.78
2017-07-27T06:55:50.871Z,1001.86
2017-07-27T06:57:03.494Z,1001.78
2017-07-27T06:58:15.774Z,1001.8
2017-07-27T06:59:28.374Z,1001.94
2017-07-27T07:00:40.647Z,1001.99
2017-07-27T07:01:53.253Z,1001.91
2017-07-27T07:03:05.565Z,1002.06
2017-07-27T07:04:17.574Z,1002.05
2017-07-27T07:05:30.154Z,1002
2017-07-27T07:06:42.784Z,1001.93
2017-07-27T07:07:55.378Z,1001.91
2017-07-27T07:09:07.689Z,1001.73
2017-07-27T07:10:19.711Z,1001.63
2017-07-27T07:11:32.328Z,1001.62
2017-07-27T07:12:44.933Z,1001.54
2017-07-27T07:13:57.188Z,1001.54
2017-07-27T07:15:09.445Z,1001.54
2017-07-27T07:16:21.779Z,1001.54
2017-07-27T07:17:34.082Z,1001.54
2017-07-27T07:18:46.340Z,1001.51
2017-07-27T07:19:58.930Z,1001.54
2017-07-27T07:21:11.482Z,1001.49
2017-07-27T07:22:24.120Z,1001.47
2017-07-27T07:23:36.085Z,1001.42
2017-07-27T07:24:48.733Z,1001.42
2017-07-27T07:26:01.004Z,1001.47
2017-07-27T07:27:13.612Z,1001.47
2017-07-27T07:28:26.220Z,1001.53
2017-07-27T07:29:38.197Z,1001.52
2017-07-27T07:30:50.755Z,1001.51
2017-07-27T07:32:03.015Z,1001.51
2017-07-27T07:33:15.549Z,1001.49
2017-07-27T07:34:28.113Z,1001.5
2017-07-27T07:35:40.665Z,1001.54
2017-07-27T07:36:53.278Z,1001.6
2017-07-27T07:38:06.156Z,1001.6
2017-07-27T07:39:18.470Z,1001.62
2017-07-27T07:40:31.015Z,1001.61
2017-07-27T07:41:43.277Z,1001.63
2017-07-27T07:42:55.915Z,1001.67
2017-07-27T07:44:08.497Z,1001.62
2017-07-27T07:45:21.125Z,1001.64
2017-07-27T07:46:33.124Z,1001.63
2017-07-27T07:47:45.741Z,1001.64
2017-07-27T07:48:58.377Z,1001.64
2017-07-27T07:50:10.980Z,1001.62
2017-07-27T07:51:23.268Z,1001.62
2017-07-27T07:52:35.263Z,1001.57
2017-07-27T07:53:47.913Z,1001.56
2017-07-27T07:55:00.240Z,1001.51
2017-07-27T07:56:12.300Z,1001.54
2017-07-27T07:57:24.898Z,1001.51
2017-07-27T07:58:37.543Z,1001.52
2017-07-27T07:59:50.432Z,1001.51
2017-07-27T08:01:03.017Z,1001.56
2017-07-27T08:02:15.322Z,1001.57
2017-07-27T08:03:27.629Z,1001.55
2017-07-27T08:04:39.956Z,1001.51
2017-07-27T08:05:52.604Z,1001.54
2017-07-27T08:07:05.159Z,1001.5
2017-07-27T08:08:17.534Z,1001.49
2017-07-27T08:09:30.110Z,1001.53
2017-07-27T08:10:42.409Z,1001.55
2017-07-27T08:11:54.725Z,1001.6
2017-07-27T08:13:07.045Z,1001.56
2017-07-27T08:14:19.341Z,1001.53
2017-07-27T08:15:31.642Z,1001.54
2017-07-27T08:16:44.267Z,1001.5
2017-07-27T08:17:56.642Z,1001.5
2017-07-27T08:19:09.339Z,1001.5
2017-07-27T08:20:21.995Z,1001.53
2017-07-27T08:21:34.279Z,1001.52
2017-07-27T08:22:46.886Z,1001.52
2017-07-27T08:23:59.536Z,1001.5
2017-07-27T08:25:11.808Z,1001.49
2017-07-27T08:26:24.417Z,1001.5
2017-07-27T08:27:36.732Z,1001.5
2017-07-27T08:28:49.049Z,1001.53
2017-07-27T08:30:01.694Z,1001.55
2017-07-27T08:31:13.714Z,1001.56
2017-07-27T08:32:26.277Z,1001.58
2017-07-27T08:33:38.560Z,1001.56
2017-07-27T08:34:51.181Z,1001.53
2017-07-27T08:36:03.509Z,1001.54
2017-07-27T08:37:16.088Z,1001.5
2017-07-27T08:38:28.659Z,1001.49
2017-07-27T08:39:40.983Z,1001.54
2017-07-27T08:40:53.600Z,1001.58
2017-07-27T08:42:06.225Z,1001.6
2017-07-27T08:43:18.879Z,1001.62
2017-07-27T08:44:31.181Z,1001.58
2017-07-27T08:45:43.409Z,1001.58
2017-07-27T08:46:56.136Z,1001.62
2017-07-27T08:48:08.862Z,1001.62
2017-07-27T08:49:21.456Z,1001.64
2017-07-27T08:50:33.768Z,1001.65
2017-07-27T08:51:46.287Z,1001.62
2017-07-27T08:52:58.909Z,1001.63
2017-07-27T08:54:11.541Z,1001.62
2017-07-27T08:55:24.200Z,1001.55
2017-07-27T08:56:36.540Z,1001.57
2017-07-27T08:57:49.144Z,1001.6
2017-07-27T08:59:01.798Z,1001.61
2017-07-27T09:00:14.371Z,1001.65
2017-07-27T09:01:26.724Z,1001.57
2017-07-27T09:02:39.363Z,1001.64
2017-07-27T09:03:51.997Z,1001.59
2017-07-27T09:05:04.311Z,1001.6
2017-07-27T09:06:16.913Z,1001.55
2017-07-27T09:07:28.927Z,1001.54
2017-07-27T09:08:40.932Z,1001.56
2017-07-27T09:09:53.476Z,1001.67
2017-07-27T09:11:05.827Z,1001.78
2017-07-27T09:12:18.420Z,1001.9
2017-07-27T09:13:30.440Z,1001.83
2017-07-27T09:14:43.010Z,1001.82
2017-07-27T09:15:55.639Z,1001.85
2017-07-27T09:17:07.983Z,1001.89
2017-07-27T09:18:20.624Z,1001.9
2017-07-27T09:19:33.306Z,1001.91
2017-07-27T09:20:45.655Z,1001.93
2017-07-27T09:21:58.269Z,1001.86
2017-07-27T09:23:10.649Z,1001.9
2017-07-27T09:24:22.920Z,1001.95
2017-07-27T09:25:35.545Z,1001.95
2017-07-27T09:26:48.224Z,1001.9
2017-07-27T09:28:00.569Z,1001.89
2017-07-27T09:29:12.890Z,1001.9
2017-07-27T09:30:25.523Z,1001.85
2017-07-27T09:31:38.130Z,1001.84
2017-07-27T09:32:50.392Z,1001.85
2017-07-27T09:34:02.713Z,1001.81
2017-07-27T09:35:14.984Z,1001.73
2017-07-27T09:36:27.322Z,1001.78
2017-07-27T09:37:39.645Z,1001.7
2017-07-27T09:38:52.258Z,1001.67
2017-07-27T09:40:04.903Z,1001.7
2017-07-27T09:41:17.146Z,1001.72
2017-07-27T09:42:29.195Z,1001.72
2017-07-27T09:43:41.712Z,1001.73
2017-07-27T09:44:54.309Z,1001.73
2017-07-27T09:46:06.866Z,1001.73
2017-07-27T09:47:19.420Z,1001.73
2017-07-27T09:48:31.704Z,1001.75
2017-07-27T09:49:44.368Z,1001.69
2017-07-27T09:50:56.964Z,1001.7
2017-07-27T09:52:09.270Z,1001.71
2017-07-27T09:53:21.554Z,1001.73
2017-07-27T09:54:34.126Z,1001.7
2017-07-27T09:55:46.474Z,1001.66
2017-07-27T09:56:58.867Z,1001.69
2017-07-27T09:58:11.454Z,1001.72
2017-07-27T09:59:23.439Z,1001.75
2017-07-27T10:00:36.055Z,1001.75
2017-07-27T10:01:48.435Z,1001.64
2017-07-27T10:03:00.730Z,1001.64
2017-07-27T10:04:13.419Z,1001.61
2017-07-27T10:05:26.053Z,1001.73
2017-07-27T10:06:38.440Z,1001.65
2017-07-27T10:07:50.792Z,1001.74
2017-07-27T10:09:03.108Z,1001.71
2017-07-27T10:10:15.673Z,1001.71
2017-07-27T10:11:28.294Z,1001.7
2017-07-27T10:12:40.888Z,1001.73
2017-07-27T10:13:53.489Z,1001.72
2017-07-27T10:15:05.868Z,1001.67
2017-07-27T10:16:18.526Z,1001.66
2017-07-27T10:17:31.166Z,1001.61
2017-07-27T10:18:43.428Z,1001.65
2017-07-27T10:19:55.732Z,1001.62
2017-07-27T10:21:08.015Z,1001.62
2017-07-27T10:22:20.625Z,1001.62
2017-07-27T10:23:33.196Z,1001.66
2017-07-27T10:24:45.750Z,1001.62
2017-07-27T10:25:58.356Z,1001.71
2017-07-27T10:27:10.346Z,1001.75
2017-07-27T10:28:22.652Z,1001.71
2017-07-27T10:29:34.949Z,1001.71
2017-07-27T10:30:46.920Z,1001.8
2017-07-27T10:31:58.898Z,1001.82
2017-07-27T10:33:11.245Z,1001.81
2017-07-27T10:34:23.884Z,1001.74
2017-07-27T10:35:36.129Z,1001.66
2017-07-27T10:36:48.470Z,1001.63
2017-07-27T10:38:01.108Z,1001.6
2017-07-27T10:39:13.737Z,1001.55
2017-07-27T10:40:26.076Z,1001.54
2017-07-27T10:41:38.352Z,1001.56
2017-07-27T10:42:50.998Z,1001.54
2017-07-27T10:44:03.612Z,1001.64
2017-07-27T10:45:15.961Z,1001.72
2017-07-27T10:46:28.568Z,1001.77
2017-07-27T10:47:41.121Z,1001.8
2017-07-27T10:48:53.133Z,1001.67
2017-07-27T10:50:05.730Z,1001.62
2017-07-27T10:51:18.389Z,1001.55
2017-07-27T10:52:30.670Z,1001.47
2017-07-27T10:53:42.343Z,1001.48
2017-07-27T10:54:54.937Z,1001.53
2017-07-27T10:56:07.569Z,1001.55
2017-07-27T10:57:19.795Z,1001.61
2017-07-27T10:58:32.114Z,1001.64
2017-07-27T10:59:44.447Z,1001.63
2017-07-27T11:00:57.051Z,1001.56
2017-07-27T11:02:09.665Z,1001.53
2017-07-27T11:03:22.335Z,1001.57
2017-07-27T11:04:34.890Z,1001.57
2017-07-27T11:05:46.819Z,1001.56
2017-07-27T11:06:58.819Z,1001.57
2017-07-27T11:08:11.385Z,1001.57
2017-07-27T11:09:23.628Z,1001.55
2017-07-27T11:10:36.194Z,1001.55
2017-07-27T11:11:48.544Z,1001.54
2017-07-27T11:13:00.173Z,1001.53
2017-07-27T11:14:12.768Z,1001.52
2017-07-27T11:15:25.453Z,1001.47
2017-07-27T11:16:37.723Z,1001.45
2017-07-27T11:17:50.307Z,1001.53
2017-07-27T11:19:02.919Z,1001.54
2017-07-27T11:20:15.256Z,1001.49
2017-07-27T11:21:27.512Z,1001.5
2017-07-27T11:22:40.031Z,1001.56
2017-07-27T11:23:52.540Z,1001.56
2017-07-27T11:25:04.820Z,1001.59
2017-07-27T11:26:17.390Z,1001.64
2017-07-27T11:27:29.710Z,1001.62
2017-07-27T11:28:41.731Z,1001.63
2017-07-27T11:29:54.365Z,1001.65
2017-07-27T11:31:06.630Z,1001.68
2017-07-27T11:32:19.174Z,1001.69
2017-07-27T11:33:31.757Z,1001.71
2017-07-27T11:34:44.330Z,1001.7
2017-07-27T11:35:56.936Z,1001.68
2017-07-27T11:37:08.914Z,1001.65
2017-07-27T11:38:21.228Z,1001.65
2017-07-27T11:39:33.769Z,1001.67
2017-07-27T11:40:45.754Z,1001.71
2017-07-27T11:41:57.688Z,1001.69
2017-07-27T11:43:09.991Z,1001.72
2017-07-27T11:44:22.272Z,1001.77
2017-07-27T11:45:34.851Z,1001.76
2017-07-27T11:46:47.421Z,1001.71
2017-07-27T11:47:59.699Z,1001.72
2017-07-27T11:49:12.290Z,1001.73
2017-07-27T11:50:24.260Z,1001.75
2017-07-27T11:51:36.206Z,1001.78
2017-07-27T11:52:48.792Z,1001.77
2017-07-27T11:54:00.752Z,1001.71
2017-07-27T11:55:13.069Z,1001.74
2017-07-27T11:56:25.693Z,1001.74
2017-07-27T11:57:38.012Z,1001.78
2017-07-27T11:58:50.648Z,1001.86
2017-07-27T12:00:02.582Z,1001.91
2017-07-27T12:01:15.154Z,1001.9
2017-07-27T12:02:27.734Z,1001.83
2017-07-27T12:03:39.746Z,1001.8
2017-07-27T12:04:52.411Z,1001.82
2017-07-27T12:06:04.937Z,1001.75
2017-07-27T12:07:17.239Z,1001.75
2017-07-27T12:08:29.849Z,1001.79
2017-07-27T12:09:42.169Z,1001.86
2017-07-27T12:10:54.705Z,1001.83
2017-07-27T12:12:07.053Z,1001.82
2017-07-27T12:13:19.636Z,1001.76
2017-07-27T12:14:31.884Z,1001.81
2017-07-27T12:15:44.541Z,1001.77
2017-07-27T12:16:56.850Z,1001.75
2017-07-27T12:18:09.493Z,1001.81
2017-07-27T12:19:22.046Z,1001.81
2017-07-27T12:20:34.357Z,1001.84
2017-07-27T12:21:46.305Z,1001.88
2017-07-27T12:22:58.861Z,1001.84
2017-07-27T12:24:11.469Z,1001.95
2017-07-27T12:25:23.808Z,1001.91
2017-07-27T12:26:36.362Z,1001.84
2017-07-27T12:27:49.038Z,1001.82
2017-07-27T12:29:01.304Z,1001.8
2017-07-27T12:30:13.849Z,1001.76
2017-07-27T12:31:26.434Z,1001.81
2017-07-27T12:32:39.043Z,1001.7
2017-07-27T12:33:51.318Z,1001.76
2017-07-27T12:35:03.888Z,1001.75
2017-07-27T12:36:16.514Z,1001.77
2017-07-27T12:37:29.057Z,1001.87
2017-07-27T12:38:41.645Z,1002.01
2017-07-27T12:39:54.269Z,1002.07
2017-07-27T12:41:06.618Z,1001.99
2017-07-27T12:42:19.261Z,1002.11
2017-07-27T12:43:31.855Z,1002.15
2017-07-27T12:44:44.176Z,1002.06
2017-07-27T12:45:56.462Z,1002.01
2017-07-27T12:47:08.459Z,1001.93
2017-07-27T12:48:21.011Z,1001.92
2017-07-27T12:49:33.562Z,1001.86
2017-07-27T12:50:46.155Z,1001.88
2017-07-27T12:51:58.441Z,1001.84
2017-07-27T12:53:11.027Z,1001.83
2017-07-27T12:54:23.330Z,1001.79
2017-07-27T12:55:35.599Z,1001.78
2017-07-27T12:56:47.950Z,1001.74
2017-07-27T12:58:00.179Z,1001.63
2017-07-27T12:59:11.826Z,1001.6
2017-07-27T13:00:24.086Z,1001.57
2017-07-27T13:01:36.393Z,1001.59
2017-07-27T13:02:48.982Z,1001.6
2017-07-27T13:04:01.559Z,1001.58
2017-07-27T13:05:13.857Z,1001.65
2017-07-27T13:06:26.353Z,1001.59
2017-07-27T13:07:38.979Z,1001.56
2017-07-27T13:08:51.235Z,1001.55
2017-07-27T13:10:03.539Z,1001.54
2017-07-27T13:11:15.786Z,1001.54
2017-07-27T13:12:27.773Z,1001.54
2017-07-27T13:13:39.727Z,1001.5
2017-07-27T13:14:52.322Z,1001.54
2017-07-27T13:16:04.299Z,1001.52
2017-07-27T13:17:16.889Z,1001.49
2017-07-27T13:18:29.185Z,1001.47
2017-07-27T13:19:41.458Z,1001.47
2017-07-27T13:20:54.059Z,1001.4
2017-07-27T13:22:06.653Z,1001.4
2017-07-27T13:23:18.996Z,1001.38
2017-07-27T13:24:31.567Z,1001.35
2017-07-27T13:25:43.817Z,1001.37
2017-07-27T13:26:56.130Z,1001.42
2017-07-27T13:28:08.367Z,1001.43
2017-07-27T13:29:20.897Z,1001.52
2017-07-27T13:30:33.206Z,1001.69
2017-07-27T13:31:45.791Z,1001.71
2017-07-27T13:32:58.054Z,1001.69
2017-07-27T13:34:10.614Z,1001.71
2017-07-27T13:35:23.205Z,1001.71
2017-07-27T13:36:35.750Z,1001.78
2017-07-27T13:37:48.276Z,1001.77
2017-07-27T13:39:00.942Z,1001.74
2017-07-27T13:40:13.473Z,1001.76
2017-07-27T13:41:26.064Z,1001.75
2017-07-27T13:42:38.320Z,1001.78
2017-07-27T13:43:50.930Z,1001.7
2017-07-27T13:45:02.973Z,1001.78
2017-07-27T13:46:15.516Z,1001.73
2017-07-27T13:47:28.112Z,1001.72
2017-07-27T13:48:40.440Z,1001.76
2017-07-27T13:49:52.738Z,1001.84
2017-07-27T13:51:05.079Z,1001.8
2017-07-27T13:52:17.346Z,1001.79
2017-07-27T13:53:29.592Z,1001.62
2017-07-27T13:54:41.870Z,1001.68
2017-07-27T13:55:54.190Z,1001.56
2017-07-27T13:57:06.759Z,1001.62
2017-07-27T13:58:19.402Z,1001.68
2017-07-27T13:59:31.450Z,1001.73
2017-07-27T14:00:44.043Z,1001.7
2017-07-27T14:01:56.679Z,1001.7
2017-07-27T14:03:08.949Z,1001.65
2017-07-27T14:04:21.557Z,1001.63
2017-07-27T14:05:34.192Z,1001.56
2017-07-27T14:06:46.515Z,1001.71
2017-07-27T14:07:59.045Z,1001.72
2017-07-27T14:09:11.626Z,1001.71
2017-07-27T14:10:24.218Z,1001.7
2017-07-27T14:11:36.898Z,1001.65
2017-07-27T14:12:49.526Z,1001.66
2017-07-27T14:14:01.877Z,1001.78
2017-07-27T14:15:13.830Z,1001.84
2017-07-27T14:16:26.163Z,1001.84
2017-07-27T14:17:38.464Z,1001.87
2017-07-27T14:18:51.022Z,1001.86
2017-07-27T14:20:03.353Z,1001.98
2017-07-27T14:21:15.933Z,1001.96
2017-07-27T14:22:27.967Z,1001.89
2017-07-27T14:23:40.247Z,1001.84
2017-07-27T14:24:52.918Z,1001.78
2017-07-27T14:26:04.887Z,1001.63
2017-07-27T14:27:17.511Z,1001.82
2017-07-27T14:28:29.885Z,1001.77
2017-07-27T14:29:42.474Z,1001.58
2017-07-27T14:30:54.721Z,1001.45
2017-07-27T14:32:06.670Z,1001.6
2017-07-27T14:33:19.232Z,1001.6
2017-07-27T14:34:31.488Z,1001.59
2017-07-27T14:35:44.075Z,1001.47
2017-07-27T14:36:56.096Z,1001.38
2017-07-27T14:38:08.760Z,1001.34
2017-07-27T14:39:21.360Z,1001.36